createdAt,value
2023-05-19T00:00:04.775Z,100035.81
2023-05-19T00:00:17.840Z,100031.53
2023-05-19T00:00:30.972Z,100035.03
2023-05-19T00:00:47.530Z,100039.34
2023-05-19T00:01:00.592Z,100040.22
2023-05-19T00:01:16.964Z,100037.75
2023-05-19T00:01:29.266Z,100034.28
2023-05-19T00:01:43.950Z,100036.03
2023-05-19T00:01:56.523Z,100039.44
2023-05-19T00:02:09.633Z,100032.53
2023-05-19T00:02:21.979Z,100033.38
2023-05-19T00:02:34.377Z,100037.69
2023-05-19T00:02:46.754Z,100038.53
2023-05-19T00:03:00.460Z,100031.56
2023-05-19T00:03:13.113Z,100036.78
2023-05-19T00:03:25.437Z,100037.63
2023-05-19T00:03:40.387Z,100037.63
2023-05-19T00:03:54.739Z,100037.69
2023-05-19T00:04:07.576Z,100039.56
2023-05-19T00:04:19.811Z,100035.19
2023-05-19T00:04:33.392Z,100030.94
2023-05-19T00:04:45.627Z,100041.34
2023-05-19T00:04:58.244Z,100039.56
2023-05-19T00:05:12.984Z,100040.44
2023-05-19T00:05:25.175Z,100029.22
2023-05-19T00:05:45.476Z,100040.56
2023-05-19T00:05:58.918Z,100046.66
2023-05-19T00:06:11.051Z,100040.63
2023-05-19T00:06:25.410Z,100037.19
2023-05-19T00:06:38.273Z,100042.34
2023-05-19T00:06:51.639Z,100035.38
2023-05-19T00:07:05.511Z,100047.56
2023-05-19T00:07:20.863Z,100046.75
2023-05-19T00:07:33.679Z,100040.69
2023-05-19T00:07:47.132Z,100036.44
2023-05-19T00:08:01.208Z,100045.16
2023-05-19T00:08:16.810Z,100044.28
2023-05-19T00:08:32.024Z,100041.75
2023-05-19T00:08:44.589Z,100041.84
2023-05-19T00:08:59.388Z,100041.06
2023-05-19T00:09:12.106Z,100032.47
2023-05-19T00:09:24.409Z,100037.66
2023-05-19T00:09:37.081Z,100041.16
2023-05-19T00:09:49.536Z,100037.66
2023-05-19T00:10:01.733Z,100039.28
2023-05-19T00:10:14.481Z,100036.63
2023-05-19T00:10:31.554Z,100040.03
2023-05-19T00:10:44.216Z,100036.53
2023-05-19T00:10:56.647Z,100034.81
2023-05-19T00:11:08.979Z,100038.34
2023-05-19T00:11:22.784Z,100040.16
2023-05-19T00:11:39.395Z,100036.63
2023-05-19T00:11:51.640Z,100041.03
2023-05-19T00:12:04.024Z,100035.81
2023-05-19T00:12:16.361Z,100035.03
2023-05-19T00:12:28.600Z,100027.22
2023-05-19T00:12:41.591Z,100033.34
2023-05-19T00:12:53.957Z,100036.81
2023-05-19T00:13:06.222Z,100035.94
2023-05-19T00:13:20.251Z,100039.38
2023-05-19T00:13:32.485Z,100033.22
2023-05-19T00:13:48.297Z,100033.22
2023-05-19T00:14:01.382Z,100032.38
2023-05-19T00:14:13.599Z,100035.81
2023-05-19T00:14:25.749Z,100034.94
2023-05-19T00:14:37.914Z,100041.97
2023-05-19T00:14:50.243Z,100034.94
2023-05-19T00:15:02.652Z,100035.78
2023-05-19T00:15:15.350Z,100043.56
2023-05-19T00:15:27.607Z,100028.81
2023-05-19T00:15:40.126Z,100035.66
2023-05-19T00:15:52.623Z,100032.19
2023-05-19T00:16:05.993Z,100028.78
2023-05-19T00:16:18.324Z,100027.94
2023-05-19T00:16:31.691Z,100032.25
2023-05-19T00:16:43.986Z,100036.63
2023-05-19T00:16:57.925Z,100027.06
2023-05-19T00:17:10.249Z,100033.13
2023-05-19T00:17:23.677Z,100033.13
2023-05-19T00:17:36.989Z,100029.63
2023-05-19T00:17:49.027Z,100033.03
2023-05-19T00:18:01.059Z,100028.72
2023-05-19T00:18:14.015Z,100029.56
2023-05-19T00:18:26.482Z,100036.53
2023-05-19T00:18:38.552Z,100024.41
2023-05-19T00:18:51.658Z,100024.41
2023-05-19T00:19:05.920Z,100033.19
2023-05-19T00:19:18.710Z,100032.25
2023-05-19T00:19:32.416Z,100027.13
2023-05-19T00:19:45.088Z,100033.13
2023-05-19T00:19:57.258Z,100023.56
2023-05-19T00:20:09.716Z,100028.78
2023-05-19T00:20:22.511Z,100022.72
2023-05-19T00:20:34.708Z,100029.63
2023-05-19T00:20:46.751Z,100026.13
2023-05-19T00:20:59.087Z,100031.34
2023-05-19T00:21:11.085Z,100033.13
2023-05-19T00:21:23.203Z,100031.41
2023-05-19T00:21:35.483Z,100026.31
2023-05-19T00:21:47.729Z,100029.06
2023-05-19T00:21:59.963Z,100031.63
2023-05-19T00:22:12.079Z,100029.06
2023-05-19T00:22:24.160Z,100031.63
2023-05-19T00:22:37.034Z,100025.53
2023-05-19T00:22:49.178Z,100034.19
2023-05-19T00:23:01.147Z,100029.81
2023-05-19T00:23:13.126Z,100026.31
2023-05-19T00:23:25.208Z,100028.97
2023-05-19T00:23:37.168Z,100030.72
2023-05-19T00:23:49.166Z,100029.06
2023-05-19T00:24:01.282Z,100032.53
2023-05-19T00:24:13.329Z,100028.19
2023-05-19T00:24:25.291Z,100031.69
2023-05-19T00:24:37.220Z,100030.78
2023-05-19T00:24:49.257Z,100031.63
2023-05-19T00:25:01.189Z,100032.47
2023-05-19T00:25:13.215Z,100032.53
2023-05-19T00:25:28.758Z,100027.25
2023-05-19T00:25:40.868Z,100025.53
2023-05-19T00:25:53.976Z,100029.94
2023-05-19T00:26:06.084Z,100030.91
2023-05-19T00:26:18.501Z,100026.50
2023-05-19T00:26:30.644Z,100027.34
2023-05-19T00:26:42.633Z,100026.56
2023-05-19T00:26:54.649Z,100034.44
2023-05-19T00:27:07.115Z,100029.22
2023-05-19T00:27:19.161Z,100029.19
2023-05-19T00:27:31.145Z,100028.28
2023-05-19T00:27:43.282Z,100033.50
2023-05-19T00:27:55.214Z,100029.19
2023-05-19T00:28:07.164Z,100024.78
2023-05-19T00:28:19.288Z,100030.91
2023-05-19T00:28:31.277Z,100027.38
2023-05-19T00:28:43.570Z,100035.19
2023-05-19T00:28:55.714Z,100027.53
2023-05-19T00:29:07.702Z,100029.22
2023-05-19T00:29:19.653Z,100025.78
2023-05-19T00:29:31.589Z,100031.78
2023-05-19T00:29:43.573Z,100033.50
2023-05-19T00:29:55.586Z,100033.50
2023-05-19T00:30:08.222Z,100027.38
2023-05-19T00:30:22.792Z,100025.69
2023-05-19T00:30:34.744Z,100026.56
2023-05-19T00:30:46.720Z,100029.19
2023-05-19T00:30:58.690Z,100030.09
2023-05-19T00:31:10.659Z,100022.31
2023-05-19T00:31:22.695Z,100029.19
2023-05-19T00:31:34.864Z,100029.19
2023-05-19T00:31:46.993Z,100029.19
2023-05-19T00:31:58.999Z,100023.97
2023-05-19T00:32:11.221Z,100024.88
2023-05-19T00:32:23.251Z,100025.69
2023-05-19T00:32:35.391Z,100019.56
2023-05-19T00:32:47.374Z,100025.63
2023-05-19T00:32:59.468Z,100024.78
2023-05-19T00:33:11.488Z,100023.09
2023-05-19T00:33:23.497Z,100023.94
2023-05-19T00:33:35.672Z,100023.94
2023-05-19T00:33:47.711Z,100022.16
2023-05-19T00:33:59.995Z,100026.53
2023-05-19T00:34:12.020Z,100025.72
2023-05-19T00:34:24.219Z,100016.16
2023-05-19T00:34:36.256Z,100024.88
2023-05-19T00:34:48.752Z,100019.72
2023-05-19T00:35:00.735Z,100020.59
2023-05-19T00:35:13.019Z,100025.78
2023-05-19T00:35:25.055Z,100018.84
2023-05-19T00:35:37.047Z,100023.25
2023-05-19T00:35:49.007Z,100022.41
2023-05-19T00:36:03.572Z,100025.03
2023-05-19T00:37:11.542Z,100022.44
2023-05-19T00:38:00.838Z,100016.34
2023-05-19T00:38:15.569Z,100026.78
2023-05-19T00:38:36.414Z,100018.16
2023-05-19T00:38:48.497Z,100024.16
2023-05-19T00:39:00.485Z,100025.03
2023-05-19T00:39:12.419Z,100020.72
2023-05-19T00:39:24.373Z,100020.75
2023-05-19T00:39:36.319Z,100022.44
2023-05-19T00:39:48.334Z,100019.03
2023-05-19T00:40:00.371Z,100022.50
2023-05-19T00:40:12.696Z,100013.94
2023-05-19T00:40:25.708Z,100021.84
2023-05-19T00:40:37.916Z,100015.75
2023-05-19T00:40:49.984Z,100015.81
2023-05-19T00:41:03.179Z,100020.94
2023-05-19T00:41:15.342Z,100020.16
2023-05-19T00:41:27.360Z,100024.44
2023-05-19T00:41:39.375Z,100020.03
2023-05-19T00:41:51.517Z,100020.84
2023-05-19T00:42:03.688Z,100021.75
2023-05-19T00:42:15.994Z,100020.03
2023-05-19T00:42:28.024Z,100020.09
2023-05-19T00:42:41.344Z,100019.22
2023-05-19T00:42:53.388Z,100020.16
2023-05-19T00:43:08.546Z,100017.53
2023-05-19T00:43:20.542Z,100022.63
2023-05-19T00:43:35.980Z,100017.44
2023-05-19T00:43:47.976Z,100022.75
2023-05-19T00:43:59.918Z,100027.16
2023-05-19T00:44:11.912Z,100019.34
2023-05-19T00:44:23.893Z,100026.31
2023-05-19T00:44:40.866Z,100024.56
2023-05-19T00:44:53.170Z,100025.44
2023-05-19T00:45:05.898Z,100022.03
2023-05-19T00:45:17.946Z,100021.94
2023-05-19T00:45:29.965Z,100027.22
2023-05-19T00:45:42.080Z,100025.53
2023-05-19T00:45:54.094Z,100025.53
2023-05-19T00:46:07.236Z,100024.69
2023-05-19T00:46:19.693Z,100029.03
2023-05-19T00:46:31.693Z,100019.50
2023-05-19T00:46:43.788Z,100023.81
2023-05-19T00:46:55.902Z,100025.59
2023-05-19T00:47:08.806Z,100020.41
2023-05-19T00:47:20.865Z,100025.63
2023-05-19T00:47:33.278Z,100024.69
2023-05-19T00:47:48.076Z,100024.69
2023-05-19T00:48:00.346Z,100026.44
2023-05-19T00:48:12.381Z,100018.63
2023-05-19T00:48:25.734Z,100027.34
2023-05-19T00:48:37.808Z,100020.34
2023-05-19T00:48:51.959Z,100026.34
2023-05-19T00:49:03.892Z,100019.38
2023-05-19T00:49:15.943Z,100022.03
2023-05-19T00:49:27.895Z,100019.34
2023-05-19T00:49:40.358Z,100019.38
2023-05-19T00:49:52.321Z,100022.84
2023-05-19T00:50:04.696Z,100022.00
2023-05-19T00:50:16.841Z,100021.94
2023-05-19T00:50:28.952Z,100017.59
2023-05-19T00:50:41.292Z,100023.63
2023-05-19T00:50:56.283Z,100020.16
2023-05-19T00:51:08.466Z,100021.84
2023-05-19T00:51:20.788Z,100016.63
2023-05-19T00:51:32.809Z,100014.94
2023-05-19T00:51:44.976Z,100018.34
2023-05-19T00:51:58.695Z,100022.63
2023-05-19T00:52:10.804Z,100021.75
2023-05-19T00:52:23.171Z,100021.63
2023-05-19T00:52:35.270Z,100017.31
2023-05-19T00:52:47.278Z,100012.94
2023-05-19T00:52:59.403Z,100017.31
2023-05-19T00:53:13.290Z,100014.69
2023-05-19T00:53:25.454Z,100018.16
2023-05-19T00:53:37.406Z,100016.44
2023-05-19T00:53:52.075Z,100018.22
2023-05-19T00:54:04.435Z,100016.44
2023-05-19T00:54:16.495Z,100014.75
2023-05-19T00:54:29.182Z,100020.84
2023-05-19T00:54:41.207Z,100014.75
2023-05-19T00:54:55.098Z,100020.84
2023-05-19T00:55:08.952Z,100016.53
2023-05-19T00:55:23.150Z,100021.72
2023-05-19T00:55:37.737Z,100021.63
2023-05-19T00:55:50.413Z,100016.53
2023-05-19T00:56:03.115Z,100013.03
2023-05-19T00:56:16.807Z,100016.44
2023-05-19T00:56:28.888Z,100018.22
2023-05-19T00:56:41.421Z,100013.03
2023-05-19T00:56:55.216Z,100019.09
2023-05-19T00:57:07.362Z,100013.94
2023-05-19T00:57:20.988Z,100014.81
2023-05-19T00:57:32.997Z,100016.53
2023-05-19T00:57:46.001Z,100014.81
2023-05-19T00:57:58.148Z,100014.81
2023-05-19T00:58:11.856Z,100018.34
2023-05-19T00:58:29.208Z,100010.56
2023-05-19T00:58:44.706Z,100021.00
2023-05-19T00:58:57.240Z,100018.44
2023-05-19T00:59:09.292Z,100020.16
2023-05-19T00:59:21.384Z,100014.91
2023-05-19T00:59:33.391Z,100018.34
2023-05-19T00:59:45.498Z,100017.50
2023-05-19T00:59:57.679Z,100018.44
2023-05-19T01:00:11.206Z,100014.94
2023-05-19T01:00:23.656Z,100018.44
2023-05-19T01:00:36.949Z,100014.94
2023-05-19T01:00:49.892Z,100021.94
2023-05-19T01:01:07.279Z,100015.78
2023-05-19T01:01:21.517Z,100017.50
2023-05-19T01:01:33.950Z,100018.44
2023-05-19T01:01:49.004Z,100017.53
2023-05-19T01:02:02.713Z,100022.72
2023-05-19T01:02:15.150Z,100017.50
2023-05-19T01:02:29.774Z,100014.97
2023-05-19T01:02:43.387Z,100020.16
2023-05-19T01:02:59.162Z,100021.84
2023-05-19T01:03:11.788Z,100014.94
2023-05-19T01:03:24.191Z,100016.63
2023-05-19T01:03:36.382Z,100019.22
2023-05-19T01:03:48.596Z,100022.03
2023-05-19T01:04:01.900Z,100021.28
2023-05-19T01:04:16.846Z,100020.41
2023-05-19T01:04:29.720Z,100018.63
2023-05-19T01:04:43.752Z,100025.53
2023-05-19T01:04:57.209Z,100021.19
2023-05-19T01:05:09.651Z,100017.69
2023-05-19T01:05:22.183Z,100016.81
2023-05-19T01:05:34.297Z,100018.53
2023-05-19T01:05:47.494Z,100015.97
2023-05-19T01:06:04.814Z,100023.75
2023-05-19T01:06:19.069Z,100015.91
2023-05-19T01:06:31.194Z,100013.28
2023-05-19T01:06:43.765Z,100019.31
2023-05-19T01:06:56.598Z,100014.94
2023-05-19T01:07:08.586Z,100020.16
2023-05-19T01:07:21.132Z,100010.56
2023-05-19T01:07:33.312Z,100015.75
2023-05-19T01:07:47.054Z,100008.88
2023-05-19T01:07:59.211Z,100013.13
2023-05-19T01:08:11.447Z,100019.19
2023-05-19T01:08:26.096Z,100019.19
2023-05-19T01:08:38.967Z,100016.69
2023-05-19T01:08:51.429Z,100012.38
2023-05-19T01:09:03.789Z,100015.78
2023-05-19T01:09:17.289Z,100015.75
2023-05-19T01:09:30.616Z,100015.75
2023-05-19T01:09:42.804Z,100014.91
2023-05-19T01:09:55.467Z,100014.94
2023-05-19T01:10:08.055Z,100021.94
2023-05-19T01:10:21.133Z,100009.81
2023-05-19T01:10:33.333Z,100022.03
2023-05-19T01:10:45.615Z,100014.22
2023-05-19T01:10:57.672Z,100013.34
2023-05-19T01:11:10.304Z,100018.53
2023-05-19T01:11:22.242Z,100009.81
2023-05-19T01:11:34.241Z,100016.75
2023-05-19T01:11:46.236Z,100014.13
2023-05-19T01:11:59.221Z,100018.53
2023-05-19T01:12:11.357Z,100022.91
2023-05-19T01:12:23.430Z,100013.34
2023-05-19T01:12:36.617Z,100017.63
2023-05-19T01:12:49.103Z,100011.53
2023-05-19T01:13:03.298Z,100010.69
2023-05-19T01:13:15.633Z,100020.22
2023-05-19T01:13:28.864Z,100015.03
2023-05-19T01:13:42.258Z,100020.22
2023-05-19T01:13:54.892Z,100015.91
2023-05-19T01:14:06.990Z,100021.09
2023-05-19T01:14:20.607Z,100019.38
2023-05-19T01:14:32.677Z,100008.97
2023-05-19T01:14:45.247Z,100018.53
2023-05-19T01:14:59.203Z,100009.88
2023-05-19T01:15:12.220Z,100018.63
2023-05-19T01:15:27.567Z,100015.13
2023-05-19T01:15:57.906Z,100018.63
2023-05-19T01:16:24.807Z,100015.41
2023-05-19T01:16:47.297Z,100012.72
2023-05-19T01:17:20.657Z,100013.41
2023-05-19T01:17:44.903Z,100011.81
2023-05-19T01:18:13.464Z,100014.38
2023-05-19T01:19:05.378Z,100009.94
2023-05-19T01:19:30.709Z,100011.72
2023-05-19T01:20:07.971Z,100010.13
2023-05-19T01:20:36.095Z,100007.56
2023-05-19T01:20:57.897Z,100010.13
2023-05-19T01:21:49.481Z,100011.81
2023-05-19T01:22:13.005Z,100010.13
2023-05-19T01:22:30.928Z,100013.59
2023-05-19T01:22:52.067Z,100015.28
2023-05-19T01:23:25.535Z,100014.31
2023-05-19T01:23:51.920Z,100013.41
2023-05-19T01:24:41.503Z,100009.00
2023-05-19T01:25:31.726Z,100008.97
2023-05-19T01:26:16.697Z,100011.50
2023-05-19T01:27:22.118Z,100013.41
2023-05-19T01:28:03.990Z,100015.22
2023-05-19T01:28:43.692Z,100008.31
2023-05-19T01:29:14.902Z,100014.41
2023-05-19T01:29:48.266Z,100010.13
2023-05-19T01:30:28.226Z,100011.00
2023-05-19T01:30:42.606Z,100010.06
2023-05-19T01:30:58.023Z,100014.44
2023-05-19T01:31:11.991Z,100011.81
2023-05-19T01:31:26.515Z,100006.59
2023-05-19T01:31:42.073Z,100011.81
2023-05-19T01:31:58.637Z,100009.25
2023-05-19T01:32:11.984Z,100012.75
2023-05-19T01:32:25.456Z,100014.56
2023-05-19T01:32:41.344Z,100013.72
2023-05-19T01:33:00.967Z,100009.38
2023-05-19T01:33:15.271Z,100008.50
2023-05-19T01:33:30.178Z,100012.91
2023-05-19T01:33:44.046Z,100010.31
2023-05-19T01:33:57.721Z,100006.91
2023-05-19T01:34:12.105Z,100013.91
2023-05-19T01:34:26.607Z,100005.19
2023-05-19T01:34:43.576Z,100008.50
2023-05-19T01:34:57.724Z,100011.00
2023-05-19T01:35:13.658Z,100003.19
2023-05-19T01:35:26.535Z,100006.59
2023-05-19T01:35:40.309Z,100006.72
2023-05-19T01:35:53.776Z,100001.50
2023-05-19T01:36:08.696Z,100008.41
2023-05-19T01:36:24.114Z,100006.72
2023-05-19T01:36:38.406Z,100008.41
2023-05-19T01:36:51.450Z,100013.59
2023-05-19T01:37:04.982Z,100004.88
2023-05-19T01:37:17.616Z,100002.19
2023-05-19T01:37:30.259Z,100004.78
2023-05-19T01:37:42.591Z,100004.75
2023-05-19T01:37:57.237Z,100009.00
2023-05-19T01:38:11.604Z,100002.13
2023-05-19T01:38:25.649Z,100005.53
2023-05-19T01:38:38.339Z,99996.88
2023-05-19T01:38:52.327Z,100004.59
2023-05-19T01:39:04.831Z,100006.31
2023-05-19T01:39:18.241Z,100001.97
2023-05-19T01:39:31.405Z,100002.81
2023-05-19T01:39:45.620Z,100004.59
2023-05-19T01:39:57.608Z,100001.13
2023-05-19T01:40:10.364Z,100008.88
2023-05-19T01:40:25.961Z,100002.72
2023-05-19T01:40:40.139Z,100000.91
2023-05-19T01:40:54.113Z,99998.28
2023-05-19T01:41:06.859Z,99999.91
2023-05-19T01:41:21.900Z,100005.13
2023-05-19T01:41:34.850Z,100001.69
2023-05-19T01:41:47.507Z,99999.91
2023-05-19T01:42:01.578Z,100000.72
2023-05-19T01:42:15.736Z,100002.53
2023-05-19T01:42:29.848Z,100002.56
2023-05-19T01:42:42.188Z,100001.75
2023-05-19T01:42:57.799Z,100001.75
2023-05-19T01:43:13.701Z,99998.31
2023-05-19T01:43:27.580Z,100001.81
2023-05-19T01:43:40.588Z,99999.16
2023-05-19T01:43:54.474Z,99999.19
2023-05-19T01:44:07.296Z,100001.81
2023-05-19T01:44:19.696Z,99999.19
2023-05-19T01:44:35.657Z,100001.00
2023-05-19T01:44:47.808Z,99998.34
2023-05-19T01:45:00.151Z,100003.53
2023-05-19T01:45:12.335Z,100002.59
2023-05-19T01:45:27.328Z,99997.41
2023-05-19T01:45:40.810Z,100006.00
2023-05-19T01:45:53.876Z,100000.81
2023-05-19T01:46:06.982Z,100004.22
2023-05-19T01:46:19.659Z,100001.59
2023-05-19T01:46:32.254Z,100006.94
2023-05-19T01:46:45.749Z,100000.00
2023-05-19T01:46:58.042Z,100003.41
2023-05-19T01:47:10.849Z,100007.72
2023-05-19T01:47:23.857Z,100004.22
2023-05-19T01:47:40.339Z,100001.59
2023-05-19T01:47:56.733Z,99999.00
2023-05-19T01:48:11.063Z,100003.31
2023-05-19T01:48:23.610Z,100004.22
2023-05-19T01:48:35.855Z,99999.88
2023-05-19T01:48:48.377Z,100000.72
2023-05-19T01:49:01.261Z,100000.72
2023-05-19T01:49:13.592Z,99995.50
2023-05-19T01:49:25.601Z,100004.09
2023-05-19T01:49:37.901Z,100004.97
2023-05-19T01:49:49.909Z,99997.16
2023-05-19T01:50:01.958Z,100004.97
2023-05-19T01:50:14.249Z,100004.94
2023-05-19T01:50:26.729Z,100002.31
2023-05-19T01:50:38.914Z,100002.25
2023-05-19T01:50:51.453Z,100001.38
2023-05-19T01:51:03.630Z,100003.16
2023-05-19T01:51:15.788Z,100004.03
2023-05-19T01:51:28.277Z,100001.44
2023-05-19T01:51:41.109Z,100000.53
2023-05-19T01:51:53.453Z,100000.53
2023-05-19T01:52:05.731Z,99999.56
2023-05-19T01:52:18.726Z,100001.31
2023-05-19T01:52:30.923Z,100005.66
2023-05-19T01:52:43.024Z,100003.94
2023-05-19T01:52:57.886Z,100003.88
2023-05-19T01:53:13.479Z,100008.22
2023-05-19T01:53:26.114Z,99998.72
2023-05-19T01:53:38.148Z,99997.84
2023-05-19T01:53:50.105Z,99997.78
2023-05-19T01:54:02.231Z,100003.13
2023-05-19T01:54:14.272Z,99990.09
2023-05-19T01:54:26.217Z,100003.94
2023-05-19T01:54:38.237Z,100008.34
2023-05-19T01:54:50.313Z,100003.94
2023-05-19T01:55:02.272Z,100001.31
2023-05-19T01:55:14.663Z,99998.72
2023-05-19T01:55:26.793Z,99993.50
2023-05-19T01:55:50.756Z,100000.44
2023-05-19T01:56:03.296Z,99997.91
2023-05-19T01:56:28.420Z,100002.41
2023-05-19T01:56:54.873Z,100010.38
2023-05-19T01:57:27.750Z,99996.91
2023-05-19T01:57:58.698Z,100007.28
2023-05-19T01:58:39.111Z,100002.56
2023-05-19T01:58:59.706Z,100008.59
2023-05-19T01:59:36.809Z,100001.34
2023-05-19T02:00:12.621Z,100008.13
2023-05-19T02:00:27.258Z,100004.53
2023-05-19T02:00:59.260Z,100004.41
2023-05-19T02:01:39.108Z,100003.47
2023-05-19T02:01:51.069Z,100010.41
2023-05-19T02:02:16.410Z,100016.44
2023-05-19T02:02:53.461Z,100007.81
2023-05-19T02:03:08.182Z,100013.91
2023-05-19T02:03:39.196Z,100008.69
2023-05-19T02:04:20.134Z,100011.41
2023-05-19T02:04:43.836Z,100007.72
2023-05-19T02:04:59.843Z,100011.16
2023-05-19T02:05:40.236Z,100004.22
2023-05-19T02:05:52.165Z,100011.16
2023-05-19T02:06:41.360Z,100009.41
2023-05-19T02:07:05.508Z,100016.22
2023-05-19T02:07:43.094Z,100012.81
2023-05-19T02:08:09.259Z,100011.94
2023-05-19T02:08:29.995Z,100005.81
2023-05-19T02:08:57.647Z,100008.41
2023-05-19T02:09:25.438Z,100014.50
2023-05-19T02:09:59.523Z,100015.38
2023-05-19T02:10:19.185Z,100008.50
2023-05-19T02:10:35.274Z,100010.16
2023-05-19T02:10:57.842Z,100015.31
2023-05-19T02:11:28.173Z,100012.75
2023-05-19T02:11:42.328Z,100013.56
2023-05-19T02:12:11.606Z,100018.75
2023-05-19T02:12:28.495Z,100016.16
2023-05-19T02:12:41.423Z,100012.66
2023-05-19T02:12:58.269Z,100018.84
2023-05-19T02:13:13.524Z,100021.63
2023-05-19T02:13:33.367Z,100014.81
2023-05-19T02:13:50.110Z,100016.63
2023-05-19T02:14:08.333Z,100018.44
2023-05-19T02:14:25.773Z,100016.75
2023-05-19T02:14:46.415Z,100021.84
2023-05-19T02:15:02.371Z,100014.22
2023-05-19T02:15:22.228Z,100021.94
2023-05-19T02:15:42.418Z,100010.63
2023-05-19T02:15:59.461Z,100019.31
2023-05-19T02:16:13.529Z,100018.34
2023-05-19T02:16:28.876Z,100016.69
2023-05-19T02:16:48.604Z,100013.22
2023-05-19T02:17:00.984Z,100014.19
2023-05-19T02:17:16.054Z,100016.75
2023-05-19T02:17:32.996Z,100015.81
2023-05-19T02:17:50.572Z,100017.50
2023-05-19T02:18:04.484Z,100018.31
2023-05-19T02:18:18.244Z,100011.41
2023-05-19T02:18:31.620Z,100017.50
2023-05-19T02:18:45.459Z,100014.03
2023-05-19T02:18:59.448Z,100014.81
2023-05-19T02:19:26.022Z,100010.50
2023-05-19T02:19:42.144Z,100015.63
2023-05-19T02:19:54.129Z,100011.41
2023-05-19T02:20:07.205Z,100013.22
2023-05-19T02:20:19.338Z,100009.72
2023-05-19T02:20:31.968Z,100014.03
2023-05-19T02:20:44.116Z,100018.34
2023-05-19T02:20:56.062Z,100013.13
2023-05-19T02:21:13.033Z,100009.69
2023-05-19T02:21:25.361Z,100014.81
2023-05-19T02:21:37.299Z,100013.94
2023-05-19T02:21:49.298Z,100020.00
2023-05-19T02:22:01.271Z,100015.59
2023-05-19T02:22:13.238Z,100019.03
2023-05-19T02:22:25.320Z,100013.97
2023-05-19T02:22:37.782Z,100016.63
2023-05-19T02:22:49.809Z,100020.03
2023-05-19T02:23:01.772Z,100014.81
2023-05-19T02:23:13.745Z,100017.44
2023-05-19T02:23:25.769Z,100023.44
2023-05-19T02:23:37.771Z,100020.84
2023-05-19T02:23:50.645Z,100026.84
2023-05-19T02:24:02.781Z,100017.31
2023-05-19T02:24:14.700Z,100025.03
2023-05-19T02:24:26.783Z,100015.81
2023-05-19T02:24:39.484Z,100027.22
2023-05-19T02:24:51.977Z,100022.00
2023-05-19T02:25:04.217Z,100027.16
2023-05-19T02:25:16.311Z,100021.94
2023-05-19T02:25:28.246Z,100021.94
2023-05-19T02:25:40.244Z,100022.78
2023-05-19T02:25:52.215Z,100021.91
2023-05-19T02:26:04.355Z,100024.50
2023-05-19T02:26:17.098Z,100023.63
2023-05-19T02:26:29.034Z,100026.38
2023-05-19T02:26:41.202Z,100024.75
2023-05-19T02:26:54.136Z,100022.13
2023-05-19T02:27:07.732Z,100020.38
2023-05-19T02:27:19.719Z,100024.75
2023-05-19T02:27:31.893Z,100016.94
2023-05-19T02:27:43.945Z,100023.78
2023-05-19T02:27:57.704Z,100025.44
2023-05-19T02:28:11.178Z,100019.34
2023-05-19T02:28:23.141Z,100017.59
2023-05-19T02:28:36.527Z,100021.03
2023-05-19T02:28:49.597Z,100022.75
2023-05-19T02:29:01.556Z,100023.56
2023-05-19T02:29:13.847Z,100017.50
2023-05-19T02:29:25.889Z,100018.44
2023-05-19T02:29:37.905Z,100016.75
2023-05-19T02:29:49.906Z,100020.16
2023-05-19T02:30:03.680Z,100020.22
2023-05-19T02:30:15.665Z,100021.94
2023-05-19T02:30:27.857Z,100023.63
2023-05-19T02:30:39.869Z,100022.84
2023-05-19T02:30:52.631Z,100025.44
2023-05-19T02:31:10.593Z,100017.72
2023-05-19T02:31:22.565Z,100016.00
2023-05-19T02:31:34.600Z,100021.22
2023-05-19T02:31:47.038Z,100020.34
2023-05-19T02:32:01.570Z,100020.34
2023-05-19T02:32:15.747Z,100016.09
2023-05-19T02:32:27.839Z,100017.72
2023-05-19T02:32:40.181Z,100018.44
2023-05-19T02:32:54.155Z,100016.78
2023-05-19T02:33:06.395Z,100019.38
2023-05-19T02:33:19.498Z,100012.41
2023-05-19T02:33:31.767Z,100020.16
2023-05-19T02:33:43.712Z,100013.97
2023-05-19T02:33:55.849Z,100018.34
2023-05-19T02:34:08.623Z,100018.22
2023-05-19T02:34:21.055Z,100016.44
2023-05-19T02:34:33.085Z,100015.50
2023-05-19T02:34:45.585Z,100019.78
2023-05-19T02:34:57.678Z,100018.16
2023-05-19T02:35:09.793Z,100017.38
2023-05-19T02:35:23.693Z,100013.13
2023-05-19T02:35:35.689Z,100011.34
2023-05-19T02:35:48.361Z,100016.44
2023-05-19T02:36:00.402Z,100012.19
2023-05-19T02:36:14.687Z,100008.72
2023-05-19T02:36:26.625Z,100018.22
2023-05-19T02:36:43.570Z,100016.53
2023-05-19T02:36:56.529Z,100015.63
2023-05-19T02:37:08.559Z,100014.81
2023-05-19T02:37:24.572Z,100013.13
2023-05-19T02:37:36.926Z,100011.41
2023-05-19T02:37:48.872Z,100018.53
2023-05-19T02:38:01.101Z,100011.59
2023-05-19T02:38:13.355Z,100012.41
2023-05-19T02:38:25.762Z,100021.94
2023-05-19T02:38:37.737Z,100012.41
2023-05-19T02:38:49.671Z,100009.81
2023-05-19T02:39:04.400Z,100014.94
2023-05-19T02:39:16.589Z,100010.56
2023-05-19T02:39:31.023Z,100016.59
2023-05-19T02:39:46.618Z,100005.22
2023-05-19T02:39:58.871Z,100014.94
2023-05-19T02:40:11.101Z,100013.22
2023-05-19T02:40:23.236Z,100013.22
2023-05-19T02:40:35.202Z,100015.78
2023-05-19T02:40:47.120Z,100011.53
2023-05-19T02:40:59.854Z,100007.09
2023-05-19T02:41:13.733Z,100018.22
2023-05-19T02:41:25.964Z,100013.03
2023-05-19T02:41:38.509Z,100007.81
2023-05-19T02:41:50.494Z,100007.81
2023-05-19T02:42:02.525Z,100013.78
2023-05-19T02:42:17.711Z,100012.94
2023-05-19T02:42:29.702Z,100007.81
2023-05-19T02:42:41.886Z,100012.94
2023-05-19T02:42:53.838Z,100016.53
2023-05-19T02:43:06.318Z,100014.81
2023-05-19T02:43:19.545Z,100011.34
2023-05-19T02:43:32.298Z,100013.03
2023-05-19T02:43:44.721Z,100008.69
2023-05-19T02:43:56.669Z,100012.09
2023-05-19T02:44:08.835Z,100011.22
2023-05-19T02:44:20.804Z,100005.22
2023-05-19T02:44:32.820Z,100007.81
2023-05-19T02:44:44.798Z,100006.13
2023-05-19T02:44:56.788Z,100008.72
2023-05-19T02:45:08.984Z,100014.81
2023-05-19T02:45:20.955Z,100007.81
2023-05-19T02:45:32.949Z,100006.00
2023-05-19T02:45:45.035Z,100010.34
2023-05-19T02:45:57.076Z,100009.41
2023-05-19T02:46:09.088Z,100011.16
2023-05-19T02:46:21.128Z,100007.63
2023-05-19T02:46:33.672Z,100009.34
2023-05-19T02:46:46.001Z,100011.97
2023-05-19T02:46:58.161Z,100005.09
2023-05-19T02:47:10.589Z,100009.34
2023-05-19T02:47:22.697Z,100006.78
2023-05-19T02:47:37.039Z,100012.81
2023-05-19T02:47:49.327Z,100014.56
2023-05-19T02:48:04.227Z,100012.03
2023-05-19T02:48:16.284Z,100009.41
2023-05-19T02:48:28.288Z,100011.19
2023-05-19T02:48:42.741Z,100011.22